createdAt,value
2023-03-06T00:00:55.193Z,60.57
2023-03-06T00:03:28.231Z,60.60
2023-03-06T00:06:00.228Z,60.67
2023-03-06T00:08:29.283Z,60.75
2023-03-06T00:10:57.812Z,60.74
2023-03-06T00:13:26.807Z,60.83
2023-03-06T00:15:57.895Z,60.78
2023-03-06T00:18:25.969Z,60.77
2023-03-06T00:20:54.096Z,61.14
2023-03-06T00:23:22.091Z,61.43
2023-03-06T00:25:50.038Z,61.65
2023-03-06T00:28:18.049Z,61.63
2023-03-06T00:30:47.520Z,61.58
2023-03-06T00:33:15.500Z,61.55
2023-03-06T00:35:43.690Z,61.74
2023-03-06T00:38:12.884Z,62.04
2023-03-06T00:40:40.995Z,61.89
2023-03-06T00:43:09.112Z,61.35
2023-03-06T00:45:37.438Z,60.27
2023-03-06T00:48:05.988Z,60.26
2023-03-06T00:50:35.510Z,60.15
2023-03-06T00:53:03.523Z,59.93
2023-03-06T00:55:33.476Z,59.84
2023-03-06T00:58:01.589Z,59.77
2023-03-06T01:00:29.599Z,59.70
2023-03-06T01:02:57.623Z,59.64
2023-03-06T01:05:25.648Z,59.75
2023-03-06T01:07:54.096Z,59.47
2023-03-06T01:10:22.151Z,59.49
2023-03-06T01:12:50.165Z,59.48
2023-03-06T01:15:20.371Z,59.60
2023-03-06T01:17:51.798Z,59.74
2023-03-06T01:20:20.460Z,59.75
2023-03-06T01:22:48.500Z,59.82
2023-03-06T01:25:16.483Z,60.06
2023-03-06T01:27:44.527Z,60.97
2023-03-06T01:30:13.050Z,61.43
2023-03-06T01:32:41.175Z,61.85
2023-03-06T01:35:09.966Z,62.26
2023-03-06T01:37:39.108Z,62.64
2023-03-06T01:40:10.357Z,62.93
2023-03-06T01:42:38.426Z,63.07
2023-03-06T01:45:06.924Z,63.32
2023-03-06T01:47:35.833Z,63.42
2023-03-06T01:50:05.622Z,63.71
2023-03-06T01:52:38.347Z,64.04
2023-03-06T01:55:11.117Z,64.09
2023-03-06T01:57:44.628Z,64.14
2023-03-06T02:00:17.102Z,64.52
2023-03-06T02:02:54.067Z,64.65
2023-03-06T02:05:23.143Z,64.89
2023-03-06T02:07:52.098Z,64.75
2023-03-06T02:10:21.161Z,64.77
2023-03-06T02:12:51.209Z,64.72
2023-03-06T02:15:23.832Z,64.86
2023-03-06T02:17:52.764Z,65.01
2023-03-06T02:20:31.837Z,65.30
2023-03-06T02:23:08.873Z,65.29
2023-03-06T02:25:41.656Z,65.14
2023-03-06T02:28:15.430Z,65.34
2023-03-06T02:30:44.699Z,65.46
2023-03-06T02:33:15.044Z,65.30
2023-03-06T02:35:59.393Z,65.15
2023-03-06T02:38:32.022Z,65.06
2023-03-06T02:41:05.792Z,64.91
2023-03-06T02:43:37.246Z,65.07
2023-03-06T02:46:05.788Z,65.49
2023-03-06T02:48:33.880Z,65.19
2023-03-06T02:51:02.162Z,65.28
2023-03-06T02:53:30.408Z,65.23
2023-03-06T02:56:01.751Z,65.37
2023-03-06T02:58:29.986Z,65.39
2023-03-06T03:02:10.548Z,65.21
2023-03-06T03:04:39.349Z,65.33
2023-03-06T03:07:08.428Z,65.51
2023-03-06T03:09:37.354Z,65.61
2023-03-06T03:12:07.323Z,65.71
2023-03-06T03:14:35.674Z,65.70
2023-03-06T03:17:04.133Z,65.64
2023-03-06T03:19:32.296Z,65.78
2023-03-06T03:22:00.400Z,66.00
2023-03-06T03:24:30.453Z,66.20
2023-03-06T03:26:58.727Z,66.42
2023-03-06T03:29:27.148Z,66.37
2023-03-06T03:31:55.391Z,66.34
2023-03-06T03:34:25.978Z,66.59
2023-03-06T03:36:55.080Z,66.72
2023-03-06T03:39:23.778Z,66.95
2023-03-06T03:41:51.789Z,66.93
2023-03-06T03:44:20.940Z,66.97
2023-03-06T03:46:49.323Z,67.07
2023-03-06T03:49:21.167Z,67.29
2023-03-06T03:51:49.491Z,67.49
2023-03-06T03:54:18.141Z,67.85
2023-03-06T03:56:47.460Z,67.87
2023-03-06T03:59:21.155Z,68.19
2023-03-06T04:02:04.732Z,68.35
2023-03-06T04:04:34.992Z,68.47
2023-03-06T04:07:04.488Z,68.75
2023-03-06T04:09:32.660Z,68.86
2023-03-06T04:12:01.264Z,69.18
2023-03-06T04:14:30.089Z,69.59
2023-03-06T04:16:58.518Z,69.62
2023-03-06T04:19:26.825Z,69.59
2023-03-06T04:21:55.133Z,69.75
2023-03-06T04:24:23.278Z,69.97
2023-03-06T04:26:51.375Z,70.25
2023-03-06T04:29:19.408Z,70.21
2023-03-06T04:31:47.712Z,70.35
2023-03-06T04:34:16.590Z,70.53
2023-03-06T04:36:47.819Z,70.44
2023-03-06T04:39:17.437Z,70.41
2023-03-06T04:41:45.942Z,70.40
2023-03-06T04:44:14.085Z,70.54
2023-03-06T04:46:42.237Z,70.60
2023-03-06T04:49:10.310Z,70.57
2023-03-06T04:51:38.317Z,70.44
2023-03-06T04:54:06.412Z,70.38
2023-03-06T04:56:34.748Z,70.53
2023-03-06T04:59:04.915Z,70.69
2023-03-06T05:01:32.878Z,70.61
2023-03-06T05:04:00.944Z,70.67
2023-03-06T05:06:29.010Z,70.70
2023-03-06T05:08:57.101Z,70.77
2023-03-06T05:11:25.133Z,70.78
2023-03-06T05:13:53.179Z,70.77
2023-03-06T05:16:21.265Z,70.82
2023-03-06T05:18:50.700Z,70.65
2023-03-06T05:21:18.990Z,70.72
2023-03-06T05:23:47.740Z,70.62
2023-03-06T05:26:16.381Z,70.61
2023-03-06T05:28:44.876Z,70.44
2023-03-06T05:31:12.823Z,70.44
2023-03-06T05:33:40.843Z,70.42
2023-03-06T05:36:10.215Z,70.57
2023-03-06T05:38:38.132Z,70.45
2023-03-06T05:41:06.051Z,70.53
2023-03-06T05:43:33.935Z,70.71
2023-03-06T05:46:04.981Z,70.83
2023-03-06T05:48:34.229Z,70.65
2023-03-06T05:51:02.737Z,70.83
2023-03-06T05:53:31.731Z,70.81
2023-03-06T05:56:02.819Z,71.46
2023-03-06T05:58:32.509Z,71.19
2023-03-06T06:01:00.789Z,71.12
2023-03-06T06:03:28.826Z,71.08
2023-03-06T06:05:56.799Z,71.24
2023-03-06T06:08:24.892Z,71.26
2023-03-06T06:10:53.534Z,71.30
2023-03-06T06:13:21.766Z,71.69
2023-03-06T06:15:49.752Z,71.62
2023-03-06T06:18:17.793Z,71.44
2023-03-06T06:20:45.797Z,71.42
2023-03-06T06:23:13.903Z,71.47
2023-03-06T06:25:41.936Z,71.61
2023-03-06T06:28:10.206Z,71.76
2023-03-06T06:30:38.300Z,72.11
2023-03-06T06:33:06.420Z,72.30
2023-03-06T06:35:37.287Z,72.05
2023-03-06T06:38:05.339Z,71.98
2023-03-06T06:40:33.368Z,71.76
2023-03-06T06:43:01.434Z,71.63
2023-03-06T06:45:29.368Z,71.46
2023-03-06T06:47:57.364Z,71.41
2023-03-06T06:50:25.432Z,71.15
2023-03-06T06:52:53.433Z,70.93
2023-03-06T06:55:21.338Z,70.77
2023-03-06T06:57:49.247Z,70.38
2023-03-06T07:00:18.294Z,70.02
2023-03-06T07:02:49.260Z,69.54
2023-03-06T07:05:17.664Z,69.11
2023-03-06T07:07:45.674Z,68.93
2023-03-06T07:10:15.911Z,68.88
2023-03-06T07:12:43.943Z,68.73
2023-03-06T07:15:14.895Z,68.32
2023-03-06T07:17:43.090Z,67.94
2023-03-06T07:20:12.769Z,67.63
2023-03-06T07:22:50.501Z,67.47
2023-03-06T07:25:20.731Z,67.17
2023-03-06T07:27:54.019Z,66.50
2023-03-06T07:30:23.786Z,66.22
2023-03-06T07:32:54.107Z,65.64
2023-03-06T07:35:22.603Z,65.19
2023-03-06T07:37:51.578Z,65.44
2023-03-06T07:40:20.863Z,64.99
2023-03-06T07:42:48.937Z,64.26
2023-03-06T07:45:19.672Z,64.19
2023-03-06T07:47:50.656Z,64.09
2023-03-06T07:50:20.029Z,63.69
2023-03-06T07:52:50.040Z,63.47
2023-03-06T07:55:18.483Z,63.53
2023-03-06T07:57:46.570Z,63.60
2023-03-06T08:00:16.124Z,63.78
2023-03-06T08:02:44.167Z,63.26
2023-03-06T08:05:15.289Z,62.87
2023-03-06T08:07:45.156Z,62.27
2023-03-06T08:10:15.510Z,62.11
2023-03-06T08:12:43.958Z,62.04
2023-03-06T08:15:12.910Z,61.19
2023-03-06T08:17:41.501Z,60.67
2023-03-06T08:20:10.581Z,60.33
2023-03-06T08:22:39.236Z,60.11
2023-03-06T08:25:08.732Z,60.31
2023-03-06T08:27:36.616Z,60.34
2023-03-06T08:30:05.469Z,59.81
2023-03-06T08:32:36.807Z,59.53
2023-03-06T08:35:05.625Z,59.15
2023-03-06T08:37:33.785Z,58.57
2023-03-06T08:40:04.670Z,57.55
2023-03-06T08:42:33.115Z,58.16
2023-03-06T08:45:01.135Z,58.06
2023-03-06T08:47:29.149Z,56.98
2023-03-06T08:50:00.193Z,55.81
2023-03-06T08:52:28.604Z,56.37
2023-03-06T08:54:58.133Z,56.22
2023-03-06T08:57:26.228Z,55.42
2023-03-06T08:59:54.325Z,55.02
2023-03-06T09:02:22.442Z,55.18
2023-03-06T09:04:50.731Z,55.65
2023-03-06T09:07:18.693Z,54.81
2023-03-06T09:09:46.767Z,53.03
2023-03-06T09:12:14.811Z,53.00
2023-03-06T09:14:42.747Z,52.26
2023-03-06T09:17:10.647Z,51.69
2023-03-06T09:19:38.649Z,51.60
2023-03-06T09:22:06.851Z,49.45
2023-03-06T09:24:35.558Z,49.60
2023-03-06T09:27:03.742Z,50.60
2023-03-06T09:29:31.839Z,48.56
2023-03-06T09:32:00.155Z,48.11
2023-03-06T09:34:28.268Z,48.70
2023-03-06T09:36:57.703Z,48.59
2023-03-06T09:39:26.449Z,48.13
2023-03-06T09:41:57.475Z,47.79
2023-03-06T09:44:29.184Z,47.74
2023-03-06T09:47:13.526Z,47.63
2023-03-06T09:50:18.894Z,47.79
2023-03-06T09:53:23.963Z,47.67
2023-03-06T09:56:05.894Z,47.23
2023-03-06T09:58:40.957Z,46.70
2023-03-06T10:01:33.139Z,46.75
2023-03-06T10:04:06.944Z,46.06
2023-03-06T10:06:40.396Z,44.77
2023-03-06T10:09:17.836Z,43.83
2023-03-06T10:11:57.044Z,44.23
2023-03-06T10:14:39.832Z,44.78
2023-03-06T10:17:16.770Z,44.94
2023-03-06T10:19:47.679Z,44.50
2023-03-06T10:22:24.646Z,43.43
2023-03-06T10:25:01.165Z,43.79
2023-03-06T10:27:48.308Z,43.66
2023-03-06T10:30:24.064Z,42.63
2023-03-06T10:33:22.630Z,42.85
2023-03-06T10:35:53.408Z,43.66
2023-03-06T10:38:21.604Z,43.69
2023-03-06T10:40:55.439Z,43.48
2023-03-06T10:43:23.845Z,43.65
2023-03-06T10:45:53.697Z,43.16
2023-03-06T10:48:25.604Z,42.39
2023-03-06T10:51:17.757Z,42.82
2023-03-06T10:53:57.304Z,42.26
2023-03-06T10:56:30.419Z,41.66
2023-03-06T10:59:19.419Z,41.38
2023-03-06T11:01:58.710Z,41.69
2023-03-06T11:04:32.542Z,42.16
2023-03-06T11:07:28.399Z,41.92
2023-03-06T11:09:56.930Z,41.32
2023-03-06T11:12:39.390Z,40.14
2023-03-06T11:15:09.953Z,41.19
2023-03-06T11:17:50.468Z,40.96
2023-03-06T11:20:27.737Z,41.00
2023-03-06T11:23:19.577Z,39.89
2023-03-06T11:26:08.338Z,39.68
2023-03-06T11:28:51.842Z,40.24
2023-03-06T11:31:27.517Z,40.22
2023-03-06T11:34:07.776Z,40.59
2023-03-06T11:36:45.710Z,41.18
2023-03-06T11:39:50.393Z,40.78
2023-03-06T11:42:32.593Z,40.26
2023-03-06T11:45:03.387Z,39.21
2023-03-06T11:48:17.584Z,39.63
2023-03-06T11:50:53.700Z,39.64
2023-03-06T11:53:28.354Z,39.81
2023-03-06T11:56:01.414Z,39.79
2023-03-06T11:58:51.149Z,39.54
2023-03-06T12:01:42.102Z,38.58
2023-03-06T12:04:34.372Z,39.04
2023-03-06T12:07:31.303Z,38.42
2023-03-06T12:10:06.446Z,38.10
2023-03-06T12:12:59.208Z,37.81
2023-03-06T12:15:58.298Z,37.06
2023-03-06T12:18:51.288Z,36.86
2023-03-06T12:21:38.443Z,37.48
2023-03-06T12:24:28.930Z,36.60
2023-03-06T12:26:59.519Z,37.40
2023-03-06T12:29:46.187Z,37.34
2023-03-06T12:32:26.391Z,37.76
2023-03-06T12:35:05.894Z,38.48
2023-03-06T12:38:00.802Z,39.18
2023-03-06T12:40:34.970Z,39.47
2023-03-06T12:43:35.026Z,40.15
2023-03-06T12:46:24.313Z,38.34
2023-03-06T12:49:31.146Z,39.10
2023-03-06T12:52:02.497Z,38.52
2023-03-06T12:54:33.614Z,39.26
2023-03-06T12:57:01.703Z,38.84
2023-03-06T12:59:47.976Z,38.24
2023-03-06T13:02:50.553Z,39.19
2023-03-06T13:05:33.941Z,39.27
2023-03-06T13:08:22.764Z,38.67
2023-03-06T13:11:35.632Z,38.45
2023-03-06T13:14:25.683Z,38.98
2023-03-06T13:16:54.680Z,39.14
2023-03-06T13:19:25.832Z,39.08
2023-03-06T13:21:56.613Z,38.48
2023-03-06T13:24:27.835Z,37.88
2023-03-06T13:27:04.837Z,38.02
2023-03-06T13:29:38.730Z,37.62
2023-03-06T13:32:18.778Z,37.47
2023-03-06T13:34:49.169Z,37.37
2023-03-06T13:37:17.166Z,38.05
2023-03-06T13:40:00.506Z,37.76
2023-03-06T13:42:31.195Z,37.32
2023-03-06T13:45:23.802Z,36.96
2023-03-06T13:50:49.880Z,35.82
2023-03-06T13:53:55.689Z,35.63
2023-03-06T13:56:23.581Z,36.45
2023-03-06T13:58:57.331Z,37.06
2023-03-06T14:01:32.836Z,36.82
2023-03-06T14:04:13.704Z,36.42
2023-03-06T14:07:01.416Z,36.85
2023-03-06T14:09:35.699Z,37.20
2023-03-06T14:12:38.060Z,37.43
2023-03-06T14:15:17.757Z,37.79
2023-03-06T14:18:04.823Z,38.17
2023-03-06T14:20:43.438Z,38.43
2023-03-06T14:23:16.601Z,38.52
2023-03-06T14:25:47.539Z,38.50
2023-03-06T14:28:27.223Z,38.92
2023-03-06T14:30:57.289Z,38.96
2023-03-06T14:33:51.146Z,39.07
2023-03-06T14:36:22.612Z,39.47
2023-03-06T14:39:08.919Z,39.73
2023-03-06T14:41:37.122Z,39.84
2023-03-06T14:44:16.694Z,39.76
2023-03-06T14:46:47.303Z,39.83
2023-03-06T14:49:17.806Z,40.35
2023-03-06T14:51:55.962Z,40.96
2023-03-06T14:54:32.433Z,41.25
2023-03-06T14:57:06.044Z,41.47
2023-03-06T14:59:56.352Z,41.65
2023-03-06T15:02:28.419Z,41.59
2023-03-06T15:05:02.984Z,41.90
2023-03-06T15:07:33.255Z,41.97
2023-03-06T15:10:01.384Z,42.10
2023-03-06T15:12:34.101Z,42.37
2023-03-06T15:15:05.247Z,42.33
2023-03-06T15:17:39.277Z,41.96
2023-03-06T15:20:36.149Z,42.27
2023-03-06T15:23:16.420Z,42.58
2023-03-06T15:25:59.031Z,43.01
2023-03-06T15:28:39.594Z,43.37
2023-03-06T15:31:10.661Z,43.32
2023-03-06T15:33:38.660Z,43.60
2023-03-06T15:36:19.618Z,43.92
2023-03-06T15:38:48.700Z,44.11
2023-03-06T15:41:26.882Z,44.37
2023-03-06T15:43:54.858Z,44.40
2023-03-06T15:46:22.722Z,44.59
2023-03-06T15:49:03.120Z,44.87
2023-03-06T15:51:32.832Z,45.03
2023-03-06T15:54:11.838Z,45.38
2023-03-06T15:56:43.938Z,45.69
2023-03-06T15:59:24.759Z,45.86
2023-03-06T16:01:54.051Z,46.20
2023-03-06T16:04:22.140Z,46.23
2023-03-06T16:06:50.042Z,46.25
2023-03-06T16:09:17.989Z,46.55
2023-03-06T16:11:47.176Z,46.42
2023-03-06T16:14:24.151Z,46.48
2023-03-06T16:16:54.352Z,46.69
2023-03-06T16:19:26.737Z,46.91
2023-03-06T16:21:56.684Z,47.00
2023-03-06T16:24:26.371Z,47.24
2023-03-06T16:26:55.287Z,47.34
2023-03-06T16:29:27.279Z,47.51
2023-03-06T16:31:57.098Z,47.72
2023-03-06T16:34:25.585Z,47.88
2023-03-06T16:36:53.609Z,47.96
2023-03-06T16:39:23.594Z,48.20
2023-03-06T16:41:52.632Z,48.45
2023-03-06T16:44:21.160Z,48.60
2023-03-06T16:46:50.491Z,48.97
2023-03-06T16:49:24.520Z,49.16
2023-03-06T16:51:53.770Z,49.38
2023-03-06T16:54:24.290Z,49.58
2023-03-06T16:56:52.340Z,49.69
2023-03-06T16:59:20.403Z,50.06
2023-03-06T17:01:48.900Z,50.18
2023-03-06T17:04:16.883Z,50.20
2023-03-06T17:06:45.048Z,50.24
2023-03-06T17:09:14.412Z,50.20
2023-03-06T17:11:46.685Z,50.22
2023-03-06T17:14:14.811Z,50.08
2023-03-06T17:16:42.730Z,50.34
2023-03-06T17:19:15.229Z,50.55
2023-03-06T17:21:43.830Z,50.42
2023-03-06T17:24:11.756Z,50.36
2023-03-06T17:26:40.368Z,50.38
2023-03-06T17:29:09.635Z,50.45
2023-03-06T17:31:38.089Z,50.42
2023-03-06T17:34:06.248Z,50.50
2023-03-06T17:36:34.178Z,50.65
2023-03-06T17:39:03.344Z,50.64
2023-03-06T17:41:33.044Z,50.82
2023-03-06T17:44:02.050Z,50.90
2023-03-06T17:46:32.204Z,51.09
2023-03-06T17:49:01.305Z,51.27
2023-03-06T17:51:29.427Z,51.31
2023-03-06T17:53:57.598Z,51.34
2023-03-06T17:56:27.019Z,51.33
2023-03-06T17:58:55.458Z,51.35
2023-03-06T18:01:27.696Z,51.44
2023-03-06T18:03:56.462Z,51.43
2023-03-06T18:06:27.560Z,51.42
2023-03-06T18:08:56.356Z,51.51
2023-03-06T18:11:24.719Z,51.47
2023-03-06T18:13:53.019Z,51.56
2023-03-06T18:16:23.412Z,51.57
2023-03-06T18:18:56.009Z,51.58
2023-03-06T18:21:25.070Z,51.71
2023-03-06T18:23:53.625Z,51.75
2023-03-06T18:26:27.772Z,51.80
2023-03-06T18:28:58.241Z,51.78
2023-03-06T18:31:29.076Z,51.88
2023-03-06T18:34:00.967Z,52.05
2023-03-06T18:36:32.417Z,52.21
2023-03-06T18:39:03.758Z,52.35
2023-03-06T18:41:32.335Z,52.27
2023-03-06T18:44:01.878Z,52.26
2023-03-06T18:46:32.014Z,52.43
2023-03-06T18:49:00.781Z,52.29
2023-03-06T18:51:28.914Z,52.18
2023-03-06T18:53:58.845Z,52.12
2023-03-06T18:56:27.415Z,52.12
2023-03-06T18:58:55.463Z,52.07
2023-03-06T19:01:24.573Z,51.98
2023-03-06T19:03:52.541Z,52.04
2023-03-06T19:06:20.471Z,52.05
2023-03-06T19:08:48.332Z,52.14
2023-03-06T19:11:18.024Z,52.29
2023-03-06T19:13:45.921Z,52.17
2023-03-06T19:16:24.399Z,52.30
2023-03-06T19:18:55.209Z,52.58
2023-03-06T19:21:26.090Z,52.92
2023-03-06T19:23:56.017Z,53.18
2023-03-06T19:26:24.610Z,53.18
2023-03-06T19:28:52.623Z,53.24
2023-03-06T19:31:26.663Z,53.32
2023-03-06T19:33:56.980Z,53.30
2023-03-06T19:36:28.865Z,53.45
2023-03-06T19:38:59.264Z,53.36
2023-03-06T19:41:28.371Z,53.42
2023-03-06T19:44:02.520Z,53.26
2023-03-06T19:46:31.929Z,53.17
2023-03-06T19:49:02.794Z,53.28
2023-03-06T19:51:30.702Z,53.16
2023-03-06T19:53:58.650Z,53.30
2023-03-06T19:56:29.332Z,53.29
2023-03-06T19:58:57.614Z,53.35
2023-03-06T20:01:27.764Z,53.63
2023-03-06T20:04:00.412Z,53.71
2023-03-06T20:06:33.803Z,54.08
2023-03-06T20:09:05.417Z,54.75
2023-03-06T20:11:33.446Z,55.25
2023-03-06T20:14:04.011Z,55.54
2023-03-06T20:16:33.869Z,55.84
2023-03-06T20:19:02.674Z,55.89
2023-03-06T20:21:35.358Z,56.15
2023-03-06T20:24:07.629Z,56.86
2023-03-06T20:26:38.057Z,57.23
2023-03-06T20:29:06.468Z,57.56
2023-03-06T20:31:34.650Z,58.33
2023-03-06T20:34:03.897Z,58.64
2023-03-06T20:36:36.022Z,59.41
2023-03-06T20:39:10.150Z,59.86
2023-03-06T20:41:38.512Z,60.04
2023-03-06T20:44:13.416Z,59.95
2023-03-06T20:46:42.719Z,60.40
2023-03-06T20:49:12.746Z,60.57
2023-03-06T20:51:41.599Z,60.67
2023-03-06T20:54:13.230Z,60.62
2023-03-06T20:56:42.986Z,60.66
2023-03-06T20:59:12.200Z,60.62
2023-03-06T21:01:42.812Z,60.52
2023-03-06T21:04:16.088Z,60.46
2023-03-06T21:06:47.113Z,60.20
2023-03-06T21:09:17.274Z,60.27
2023-03-06T21:11:46.223Z,60.27
2023-03-06T21:14:15.532Z,60.24
2023-03-06T21:16:44.585Z,60.09
2023-03-06T21:19:12.705Z,60.05
2023-03-06T21:21:40.722Z,60.11
2023-03-06T21:24:08.625Z,60.09
2023-03-06T21:26:36.604Z,60.04
2023-03-06T21:29:05.384Z,60.30
2023-03-06T21:31:34.284Z,60.67
2023-03-06T21:34:04.889Z,60.55
2023-03-06T21:36:34.146Z,60.06
2023-03-06T21:39:06.353Z,59.83
2023-03-06T21:41:34.554Z,59.95
2023-03-06T21:44:05.229Z,60.25
2023-03-06T21:46:34.269Z,60.06
2023-03-06T21:49:04.321Z,60.32
2023-03-06T21:51:32.608Z,60.32
2023-03-06T21:54:02.366Z,60.38
2023-03-06T21:56:30.411Z,61.06
2023-03-06T21:58:59.104Z,62.00
2023-03-06T22:01:29.174Z,62.06
2023-03-06T22:03:58.655Z,62.31
2023-03-06T22:06:28.331Z,62.44
2023-03-06T22:08:57.477Z,62.75
2023-03-06T22:11:28.374Z,62.75
2023-03-06T22:13:56.433Z,62.93
2023-03-06T22:16:24.371Z,63.28
2023-03-06T22:18:52.593Z,63.44
2023-03-06T22:21:22.750Z,63.56
2023-03-06T22:23:58.475Z,63.59
2023-03-06T22:26:28.546Z,64.00
2023-03-06T22:28:56.892Z,64.09
2023-03-06T22:31:28.486Z,64.38
2023-03-06T22:33:59.224Z,64.36
2023-03-06T22:36:30.546Z,64.75
2023-03-06T22:39:04.522Z,64.89
2023-03-06T22:41:32.651Z,65.19
2023-03-06T22:44:02.255Z,65.36
2023-03-06T22:46:31.260Z,65.71
2023-03-06T22:49:00.979Z,65.20
2023-03-06T22:51:29.849Z,64.13
2023-03-06T22:53:58.335Z,63.66
2023-03-06T22:56:27.756Z,63.87
2023-03-06T22:58:57.647Z,64.20
2023-03-06T23:01:29.000Z,64.30
2023-03-06T23:03:59.858Z,64.53
2023-03-06T23:06:33.789Z,64.61
2023-03-06T23:09:12.806Z,64.90
2023-03-06T23:12:00.194Z,65.15
2023-03-06T23:14:49.817Z,65.38
2023-03-06T23:17:36.742Z,64.85
2023-03-06T23:20:23.539Z,65.28
2023-03-06T23:23:10.845Z,65.76
2023-03-06T23:25:44.712Z,66.65
2023-03-06T23:28:12.868Z,67.25
2023-03-06T23:30:41.670Z,68.15
2023-03-06T23:33:10.760Z,68.56
2023-03-06T23:35:39.256Z,68.93
2023-03-06T23:38:07.748Z,71.25
2023-03-06T23:40:38.193Z,72.09
2023-03-06T23:43:06.509Z,72.68
2023-03-06T23:45:34.505Z,73.26
2023-03-06T23:48:02.618Z,73.64
2023-03-06T23:50:31.842Z,74.33
2023-03-06T23:53:00.024Z,74.58
2023-03-06T23:55:28.073Z,75.32
2023-03-06T23:57:56.089Z,75.35
